Time;durP1;ratioP1;P1;durP2;ratioP2;P2;SDS_P1;SDS_P2;PMS_P1;PMS_P2;Temp;Humidity;BMP_temperature;BMP_pressure;BME280_temperature;BME280_humidity;BME280_pressure;Samples;Min_cycle;Max_cycle;Signal;HPM_P1;HPM_P2
2022/04/01 00:01:52;;;;;;;3.93;1.97;;;3.90;73.10;;;;;;5096569;27;20230;-68
2022/04/01 00:04:41;;;;;;;3.27;1.90;;;3.90;72.60;;;;;;5098429;27;20577;-66
2022/04/01 00:07:32;;;;;;;2.67;1.97;;;3.90;72.70;;;;;;5082888;28;20226;-67
2022/04/01 00:10:21;;;;;;;4.50;1.97;;;3.90;73.30;;;;;;5099557;27;20605;-66
2022/04/01 00:13:09;;;;;;;3.23;1.80;;;4.00;73.20;;;;;;5098342;27;20229;-65
2022/04/01 00:15:59;;;;;;;3.70;1.93;;;3.80;73.50;;;;;;5096710;27;20219;-67
2022/04/01 00:18:47;;;;;;;4.50;1.73;;;3.80;73.80;;;;;;5085860;28;20291;-67
2022/04/01 00:21:36;;;;;;;2.97;1.97;;;3.80;74.00;;;;;;5097187;28;20222;-68
2022/04/01 00:24:26;;;;;;;5.80;2.07;;;3.90;73.80;;;;;;5098925;28;20223;-68
2022/04/01 00:27:18;;;;;;;4.07;2.10;;;3.90;74.10;;;;;;5098810;27;20351;-68
2022/04/01 00:30:08;;;;;;;5.73;2.43;;;3.80;74.50;;;;;;5083085;28;20601;-68
2022/04/01 00:32:57;;;;;;;4.63;2.10;;;3.80;74.70;;;;;;5099113;27;20829;-68
2022/04/01 00:35:46;;;;;;;5.10;2.67;;;3.80;74.50;;;;;;5098136;27;20253;-68
2022/04/01 00:38:34;;;;;;;2.53;2.00;;;3.90;74.50;;;;;;5082595;28;20221;-68
2022/04/01 00:41:25;;;;;;;4.00;2.20;;;3.70;74.60;;;;;;5095250;28;20836;-69
2022/04/01 00:44:19;;;;;;;4.40;2.37;;;3.80;74.90;;;;;;5094896;27;20982;-67
2022/04/01 00:47:10;;;;;;;2.50;1.80;;;3.90;75.30;;;;;;5095201;27;20290;-69
2022/04/01 00:49:59;;;;;;;3.17;1.63;;;3.90;74.60;;;;;;5097582;27;20218;-69
2022/04/01 00:52:49;;;;;;;3.10;1.90;;;3.70;74.80;;;;;;5095593;27;20405;-68
2022/04/01 00:55:37;;;;;;;5.73;1.80;;;3.80;75.10;;;;;;5097130;27;20219;-68
2022/04/01 00:58:28;;;;;;;6.00;2.13;;;3.70;74.90;;;;;;5096735;27;20233;-68
2022/04/01 01:01:17;;;;;;;3.20;2.07;;;3.70;75.00;;;;;;5095144;27;20451;-67
2022/04/01 01:04:07;;;;;;;3.77;1.70;;;3.70;74.70;;;;;;5098316;27;20226;-67
2022/04/01 01:06:57;;;;;;;4.10;2.00;;;3.70;74.80;;;;;;5109046;27;20230;-66
2022/04/01 01:09:46;;;;;;;4.57;2.13;;;3.70;74.80;;;;;;5115683;27;20751;-66
2022/04/01 01:12:38;;;;;;;1.73;1.50;;;3.70;74.40;;;;;;5093419;27;20226;-66
2022/04/01 01:15:28;;;;;;;7.00;2.17;;;3.70;74.40;;;;;;5114781;27;20222;-66
2022/04/01 01:18:18;;;;;;;5.57;2.00;;;3.70;74.70;;;;;;5099259;27;20278;-66
2022/04/01 01:21:09;;;;;;;6.43;2.10;;;3.70;74.60;;;;;;5116706;27;20214;-66
2022/04/01 01:24:03;;;;;;;4.47;2.00;;;3.70;74.60;;;;;;5117601;27;20214;-67
2022/04/01 01:26:54;;;;;;;4.27;2.30;;;3.60;74.50;;;;;;5095889;27;20283;-66
2022/04/01 01:29:45;;;;;;;2.87;1.87;;;3.70;74.50;;;;;;5119297;27;20314;-66
2022/04/01 01:32:35;;;;;;;6.97;2.30;;;3.70;74.30;;;;;;5113414;27;20231;-68
2022/04/01 01:35:25;;;;;;;2.77;1.90;;;3.70;74.70;;;;;;5110838;27;20237;-68
2022/04/01 01:38:17;;;;;;;2.90;1.90;;;3.70;74.60;;;;;;5109246;27;20214;-68
2022/04/01 01:41:06;;;;;;;5.37;1.80;;;3.60;74.90;;;;;;5098651;27;20249;-66
2022/04/01 01:43:57;;;;;;;2.97;1.97;;;3.50;75.30;;;;;;5117544;27;20342;-66
2022/04/01 01:46:46;;;;;;;4.10;2.20;;;3.50;76.50;;;;;;5102480;27;20218;-66
2022/04/01 01:49:35;;;;;;;4.93;1.70;;;3.50;76.00;;;;;;5113184;27;20605;-66
2022/04/01 01:55:33;;;;;;;3.40;1.80;;;3.30;78.20;;;;;;5112715;27;21058;-67
2022/04/01 01:58:26;;;;;;;3.37;1.43;;;3.40;78.70;;;;;;5110984;27;20230;-66
2022/04/01 02:01:16;;;;;;;2.37;1.63;;;3.40;78.50;;;;;;5106740;27;20222;-66
2022/04/01 02:04:05;;;;;;;4.97;2.10;;;3.30;79.40;;;;;;5113742;27;20282;-67
2022/04/01 02:06:54;;;;;;;3.87;2.23;;;3.30;81.50;;;;;;5104396;27;20229;-66
2022/04/01 02:09:46;;;;;;;5.37;1.70;;;3.20;82.20;;;;;;5112577;27;20218;-69
2022/04/01 02:12:39;;;;;;;4.53;2.10;;;3.10;83.30;;;;;;5095830;27;20237;-69
2022/04/01 02:15:28;;;;;;;3.87;2.20;;;3.10;84.50;;;;;;5100372;27;20411;-69
2022/04/01 02:18:20;;;;;;;3.57;1.93;;;3.10;86.10;;;;;;5110196;27;20245;-68
2022/04/01 02:21:10;;;;;;;4.10;2.07;;;2.90;85.90;;;;;;5095596;27;20223;-69
2022/04/01 02:24:00;;;;;;;5.30;2.20;;;3.00;86.00;;;;;;5103154;27;20254;-67
2022/04/01 02:26:49;;;;;;;4.07;2.00;;;2.90;87.90;;;;;;5110706;27;20213;-67
2022/04/01 02:29:38;;;;;;;4.07;2.30;;;2.90;87.40;;;;;;5099909;27;20354;-67
2022/04/01 02:32:40;;;;;;;2.93;1.60;;;3.00;86.90;;;;;;5111900;27;20712;-67
2022/04/01 02:35:39;;;;;;;4.10;1.83;;;2.90;86.80;;;;;;5109947;27;20760;-68
2022/04/01 02:38:28;;;;;;;3.00;1.90;;;2.90;87.40;;;;;;5109182;27;20219;-68
2022/04/01 02:41:17;;;;;;;2.07;1.33;;;2.90;87.60;;;;;;5098073;27;20240;-67
2022/04/01 02:44:09;;;;;;;3.20;2.30;;;3.00;87.90;;;;;;5097368;28;20697;-67
2022/04/01 02:47:03;;;;;;;4.83;2.30;;;2.80;88.60;;;;;;5112779;27;20238;-67
2022/04/01 02:49:55;;;;;;;4.90;2.23;;;3.00;88.80;;;;;;5108843;27;20315;-66
2022/04/01 02:52:45;;;;;;;2.07;1.37;;;2.90;88.80;;;;;;5100889;27;20633;-68
2022/04/01 02:55:34;;;;;;;5.13;2.07;;;2.80;90.00;;;;;;5100292;27;21056;-67
2022/04/01 02:58:23;;;;;;;2.73;1.80;;;2.70;90.40;;;;;;5113799;27;20950;-67
2022/04/01 03:01:13;;;;;;;3.70;2.20;;;2.70;90.60;;;;;;5109786;27;20455;-67
2022/04/01 03:04:01;;;;;;;3.70;2.60;;;2.70;90.80;;;;;;5113537;27;20221;-66
2022/04/01 03:06:54;;;;;;;3.43;2.10;;;2.80;90.80;;;;;;5113928;27;20794;-67
2022/04/01 03:09:45;;;;;;;6.83;2.20;;;2.90;90.60;;;;;;5112300;27;20824;-66
2022/04/01 03:12:39;;;;;;;3.30;1.90;;;2.70;90.90;;;;;;5107454;27;20230;-67
2022/04/01 03:16:06;;;;;;;3.00;1.90;;;2.60;91.30;;;;;;5029526;28;20249;-65
2022/04/01 03:19:16;;;;;;;5.73;2.17;;;2.60;91.60;;;;;;5032404;28;20220;-66
2022/04/01 03:22:05;;;;;;;6.87;2.10;;;2.60;92.60;;;;;;5094977;27;20731;-66
2022/04/01 03:24:55;;;;;;;3.90;1.80;;;2.50;94.20;;;;;;5111263;27;20248;-65
2022/04/01 03:27:45;;;;;;;3.57;2.17;;;2.40;96.30;;;;;;5104706;27;20890;-65
2022/04/01 03:30:34;;;;;;;3.63;2.27;;;2.40;96.60;;;;;;5101531;27;20234;-66
2022/04/01 03:33:23;;;;;;;3.37;2.20;;;2.50;98.10;;;;;;5106570;27;20213;-65
2022/04/01 03:36:13;;;;;;;2.63;1.73;;;2.50;98.00;;;;;;5115612;27;20669;-65
2022/04/01 03:39:05;;;;;;;2.87;1.80;;;2.30;99.90;;;;;;5100719;27;20220;-66
2022/04/01 03:42:06;;;;;;;7.73;2.50;;;2.30;99.90;;;;;;5101510;27;20286;-65
2022/04/01 03:44:58;;;;;;;4.43;2.20;;;2.20;99.90;;;;;;5097878;27;20261;-65
2022/04/01 03:48:10;;;;;;;4.60;1.63;;;2.20;99.90;;;;;;5103896;27;20209;-65
2022/04/01 03:51:04;;;;;;;3.97;1.97;;;2.10;99.90;;;;;;5112440;27;20222;-66
2022/04/01 03:54:02;;;;;;;4.27;2.10;;;2.10;99.90;;;;;;5105752;27;20222;-66
2022/04/01 03:57:36;;;;;;;3.07;2.10;;;2.20;99.90;;;;;;5020970;28;20226;-66
2022/04/01 04:00:53;;;;;;;5.10;2.60;;;2.20;99.90;;;;;;5101885;27;20243;-68
2022/04/01 04:03:50;;;;;;;4.60;2.03;;;2.30;99.90;;;;;;5120288;27;20214;-66
2022/04/01 04:06:44;;;;;;;5.33;2.27;;;2.10;99.90;;;;;;5118073;27;20719;-65
2022/04/01 04:09:33;;;;;;;5.57;1.80;;;2.20;99.90;;;;;;5100566;27;20286;-65
2022/04/01 04:12:22;;;;;;;3.50;1.93;;;2.20;99.90;;;;;;5103797;27;20309;-68
2022/04/01 04:15:23;;;;;;;4.80;2.30;;;2.20;99.90;;;;;;5101712;27;20978;-65
2022/04/01 04:18:13;;;;;;;6.07;2.27;;;2.10;99.90;;;;;;5119263;27;20221;-66
2022/04/01 04:21:11;;;;;;;3.93;1.97;;;2.10;99.90;;;;;;5104659;27;20643;-66
2022/04/01 04:24:02;;;;;;;3.20;1.90;;;1.90;99.90;;;;;;5111030;27;20210;-67
2022/04/01 04:26:59;;;;;;;4.73;2.20;;;2.00;99.90;;;;;;5101501;27;20229;-68
2022/04/01 04:29:50;;;;;;;6.60;2.23;;;2.00;99.90;;;;;;5117426;27;20229;-67
2022/04/01 04:32:57;;;;;;;6.83;2.30;;;2.00;99.90;;;;;;5112948;27;20925;-66
2022/04/01 04:35:50;;;;;;;7.60;1.80;;;2.00;99.90;;;;;;5111858;27;20250;-66
2022/04/01 04:38:46;;;;;;;6.70;2.20;;;2.00;99.90;;;;;;5108409;27;20368;-66
2022/04/01 04:41:35;;;;;;;4.27;2.30;;;2.00;99.90;;;;;;5101387;27;20360;-66
2022/04/01 04:44:29;;;;;;;4.67;2.40;;;2.00;99.90;;;;;;5104168;27;20214;-67
2022/04/01 04:47:25;;;;;;;5.60;2.50;;;2.10;99.90;;;;;;5103577;27;20225;-67
2022/04/01 04:50:17;;;;;;;9.47;2.00;;;2.00;99.90;;;;;;5116550;27;20222;-67
2022/04/01 04:53:07;;;;;;;7.33;2.10;;;1.80;99.90;;;;;;5099608;27;20214;-67
2022/04/01 04:55:59;;;;;;;5.93;2.17;;;1.80;99.90;;;;;;5104685;27;20902;-67
2022/04/01 04:58:50;;;;;;;5.20;2.57;;;1.80;99.90;;;;;;5108104;27;20221;-67
2022/04/01 05:01:54;;;;;;;8.07;2.90;;;1.80;99.90;;;;;;5112120;27;20218;-67
2022/04/01 05:05:00;;;;;;;4.67;2.10;;;1.80;99.90;;;;;;5116139;27;20224;-68
2022/04/01 05:08:07;;;;;;;5.57;2.33;;;1.90;99.90;;;;;;5102176;27;20313;-69
2022/04/01 05:11:35;;;;;;;8.10;2.77;;;1.60;99.90;;;;;;5103067;27;20218;-68
2022/04/01 05:14:38;;;;;;;3.27;1.80;;;1.60;99.90;;;;;;5110365;27;20921;-68
2022/04/01 05:17:36;;;;;;;11.83;2.93;;;1.50;99.90;;;;;;5102483;27;20727;-69
2022/04/01 05:20:29;;;;;;;6.23;2.90;;;1.50;99.90;;;;;;5102114;27;20224;-68
2022/04/01 05:23:27;;;;;;;9.07;3.40;;;1.50;99.90;;;;;;5105319;27;20210;-69
2022/04/01 05:26:20;;;;;;;8.80;2.90;;;1.50;99.90;;;;;;5104093;27;20218;-68
2022/04/01 05:29:35;;;;;;;6.17;2.90;;;1.50;99.90;;;;;;5115499;27;20233;-68
2022/04/01 05:32:31;;;;;;;6.63;2.80;;;1.50;99.90;;;;;;5103257;27;20224;-68
2022/04/01 05:35:21;;;;;;;5.77;3.10;;;1.50;99.90;;;;;;5085382;27;20232;-66
2022/04/01 05:38:10;;;;;;;6.30;2.80;;;1.50;99.90;;;;;;5101955;27;20220;-68
2022/04/01 05:41:06;;;;;;;9.37;3.13;;;1.40;99.90;;;;;;5106065;27;20245;-67
2022/04/01 05:43:57;;;;;;;6.50;3.33;;;1.30;99.90;;;;;;5112383;27;20232;-68
2022/04/01 05:46:50;;;;;;;5.53;2.90;;;1.30;99.90;;;;;;5101962;27;20677;-66
2022/04/01 05:49:42;;;;;;;9.93;3.97;;;1.20;99.90;;;;;;5118587;27;20347;-68
2022/04/01 05:52:36;;;;;;;15.57;3.20;;;1.20;99.90;;;;;;5113838;27;20218;-67
2022/04/01 05:55:30;;;;;;;6.53;4.17;;;1.10;99.90;;;;;;5116729;27;20246;-67
2022/04/01 05:58:22;;;;;;;6.20;3.70;;;1.20;99.90;;;;;;5114101;27;20323;-67
2022/04/01 06:01:21;;;;;;;10.40;3.67;;;1.00;99.90;;;;;;5118064;27;20499;-68
2022/04/01 06:04:39;;;;;;;10.00;4.00;;;0.90;99.90;;;;;;5114413;27;20225;-66
2022/04/01 06:07:36;;;;;;;10.17;4.00;;;0.90;99.90;;;;;;5101895;27;20218;-68
2022/04/01 06:10:31;;;;;;;9.43;4.27;;;0.90;99.90;;;;;;5112972;27;20226;-67
2022/04/01 06:13:56;;;;;;;8.77;4.00;;;0.90;99.90;;;;;;5115375;27;20227;-67
2022/04/01 06:17:25;;;;;;;8.80;3.43;;;0.90;99.90;;;;;;5115038;27;20236;-67
2022/04/01 06:20:16;;;;;;;9.53;4.40;;;0.90;99.90;;;;;;5118812;27;20215;-65
2022/04/01 06:23:08;;;;;;;7.47;4.33;;;1.00;99.90;;;;;;5104445;27;20223;-65
2022/04/01 06:26:01;;;;;;;7.93;2.43;;;1.20;99.90;;;;;;5105041;27;20677;-68
2022/04/01 06:29:09;;;;;;;9.90;4.13;;;1.10;99.90;;;;;;5101423;27;20730;-69
2022/04/01 06:32:05;;;;;;;6.83;4.10;;;1.20;99.90;;;;;;5114035;27;20339;-69
2022/04/01 06:35:06;;;;;;;8.67;3.93;;;1.30;99.90;;;;;;5117249;27;20223;-70
2022/04/01 06:38:38;;;;;;;6.13;3.70;;;1.40;99.90;;;;;;5111029;27;20225;-69
2022/04/01 06:41:31;;;;;;;5.80;3.43;;;1.50;99.90;;;;;;5102373;27;20950;-72
2022/04/01 06:44:31;;;;;;;6.40;2.53;;;1.60;99.90;;;;;;5115092;27;20801;-73
2022/04/01 06:47:40;;;;;;;5.33;2.77;;;1.40;99.90;;;;;;5118951;27;20311;-74
2022/04/01 06:50:33;;;;;;;4.60;2.13;;;1.40;99.90;;;;;;5118164;27;20235;-74
2022/04/01 06:53:41;;;;;;;7.43;2.50;;;1.40;99.90;;;;;;5115232;27;20225;-72
2022/04/01 06:56:59;;;;;;;7.83;3.50;;;1.50;99.90;;;;;;5112041;28;20435;-72
2022/04/01 06:59:57;;;;;;;5.80;2.50;;;1.50;99.90;;;;;;5116055;27;20318;-71
2022/04/01 07:02:49;;;;;;;6.87;2.43;;;1.60;99.90;;;;;;5115864;27;20236;-72
2022/04/01 07:05:38;;;;;;;4.93;2.53;;;1.50;99.90;;;;;;5114096;28;20226;-72
2022/04/01 07:08:27;;;;;;;8.40;2.80;;;1.50;99.90;;;;;;5116042;27;20224;-71
2022/04/01 07:11:16;;;;;;;8.93;3.00;;;1.50;99.90;;;;;;5101892;27;20675;-70
2022/04/01 07:14:06;;;;;;;7.93;3.70;;;1.50;99.90;;;;;;5121348;27;20219;-73
2022/04/01 07:16:56;;;;;;;7.80;3.83;;;1.50;99.90;;;;;;5117002;27;20755;-73
2022/04/01 07:19:45;;;;;;;6.23;2.90;;;1.40;99.90;;;;;;5119450;27;20306;-72
2022/04/01 07:22:36;;;;;;;7.00;3.57;;;1.40;99.90;;;;;;5112900;27;20920;-72
2022/04/01 07:25:30;;;;;;;9.50;3.90;;;1.30;99.90;;;;;;5120395;27;20243;-72
2022/04/01 07:28:18;;;;;;;6.13;3.10;;;1.40;99.90;;;;;;5116791;27;20220;-72
2022/04/01 07:34:24;;;;;;;6.27;3.60;;;1.70;99.90;;;;;;5117948;27;20220;-73
2022/04/01 07:37:13;;;;;;;11.23;3.47;;;1.60;99.90;;;;;;5105477;27;20253;-72
2022/04/01 07:40:22;;;;;;;10.20;3.40;;;1.70;99.90;;;;;;5104595;27;20229;-73
2022/04/01 07:43:11;;;;;;;5.80;3.37;;;1.50;99.90;;;;;;5115061;27;20242;-72
2022/04/01 07:46:03;;;;;;;5.30;3.70;;;1.30;99.90;;;;;;5102270;27;20224;-72
2022/04/01 07:48:52;;;;;;;7.30;3.20;;;1.20;99.90;;;;;;5117135;27;20771;-74
2022/04/01 07:51:44;;;;;;;12.33;3.67;;;1.10;99.90;;;;;;5103924;27;21330;-73
2022/04/01 07:54:32;;;;;;;7.60;3.50;;;1.10;99.90;;;;;;5106022;27;20214;-73
2022/04/01 07:57:21;;;;;;;7.47;3.60;;;1.10;99.90;;;;;;5119946;27;20235;-71
2022/04/01 08:00:15;;;;;;;8.80;3.57;;;1.10;99.90;;;;;;5119973;27;20222;-71
2022/04/01 08:03:04;;;;;;;11.20;3.10;;;1.10;99.90;;;;;;5113566;27;21010;-73
2022/04/01 08:05:53;;;;;;;5.50;3.17;;;1.10;99.90;;;;;;5116549;27;20278;-73
2022/04/01 08:08:44;;;;;;;7.27;3.40;;;1.10;99.90;;;;;;5116123;27;20316;-71
2022/04/01 08:11:33;;;;;;;8.37;3.57;;;1.10;99.90;;;;;;5101623;27;20237;-71
2022/04/01 08:14:25;;;;;;;5.47;2.50;;;1.10;99.90;;;;;;5121041;27;20222;-71
2022/04/01 08:17:15;;;;;;;9.73;3.70;;;1.20;99.90;;;;;;5114575;27;20226;-72
2022/04/01 08:20:05;;;;;;;5.70;2.17;;;1.10;99.90;;;;;;5099634;27;20215;-72
2022/04/01 08:22:53;;;;;;;5.40;1.80;;;1.10;99.90;;;;;;5118896;27;20224;-72
2022/04/01 08:25:44;;;;;;;4.43;2.47;;;1.00;99.90;;;;;;5113258;27;20227;-72
2022/04/01 08:28:32;;;;;;;8.63;3.70;;;1.10;99.90;;;;;;5106214;27;20233;-72
2022/04/01 08:31:21;;;;;;;7.97;3.80;;;1.10;99.90;;;;;;5115993;27;21045;-72
2022/04/01 08:34:10;;;;;;;3.70;2.43;;;1.10;99.90;;;;;;5115968;27;20591;-72
2022/04/01 08:36:59;;;;;;;11.20;3.67;;;1.10;99.90;;;;;;5112260;27;20328;-72
2022/04/01 08:39:49;;;;;;;4.73;3.07;;;1.10;99.90;;;;;;5116276;27;20213;-76
2022/04/01 08:42:45;;;;;;;7.97;3.60;;;1.00;99.90;;;;;;5113944;27;20227;-72
2022/04/01 08:45:39;;;;;;;8.97;3.70;;;1.20;99.90;;;;;;5118833;27;20227;-72
2022/04/01 08:48:28;;;;;;;10.03;3.87;;;1.30;99.90;;;;;;5118609;27;20308;-72
2022/04/01 08:51:18;;;;;;;8.63;3.00;;;1.30;99.90;;;;;;5102699;27;20251;-72
2022/04/01 08:54:07;;;;;;;8.50;3.13;;;1.20;99.90;;;;;;5116639;27;20452;-71
2022/04/01 08:56:55;;;;;;;7.97;3.77;;;1.10;99.90;;;;;;5116226;27;20237;-71
2022/04/01 08:59:59;;;;;;;6.33;2.77;;;1.00;99.90;;;;;;5115673;27;20855;-71
2022/04/01 09:02:58;;;;;;;15.93;3.73;;;0.90;99.90;;;;;;5117862;27;20219;-71
2022/04/01 09:05:52;;;;;;;7.17;3.33;;;0.80;99.90;;;;;;5106876;27;20863;-72
2022/04/01 09:08:44;;;;;;;11.30;4.03;;;0.80;99.90;;;;;;5116126;27;20218;-70
2022/04/01 09:11:32;;;;;;;10.40;4.40;;;0.80;99.90;;;;;;5117463;27;20228;-71
2022/04/01 09:14:22;;;;;;;6.43;3.70;;;0.80;99.90;;;;;;5106064;27;20232;-71
2022/04/01 09:17:12;;;;;;;9.90;4.30;;;0.80;99.90;;;;;;5103199;27;20221;-72
2022/04/01 09:20:10;;;;;;;6.97;3.93;;;0.80;99.90;;;;;;5115261;27;20226;-71
2022/04/01 09:22:59;;;;;;;8.83;4.63;;;0.90;99.90;;;;;;5114603;27;20216;-71
2022/04/01 09:25:49;;;;;;;7.87;3.97;;;1.00;99.90;;;;;;5105693;27;20702;-71
2022/04/01 09:28:40;;;;;;;12.07;4.90;;;1.00;99.90;;;;;;5115030;27;20225;-71
2022/04/01 09:31:33;;;;;;;9.50;4.73;;;1.10;99.90;;;;;;5117788;27;20219;-71
2022/04/01 09:34:31;;;;;;;11.77;5.37;;;0.90;99.90;;;;;;5095959;28;20819;-70
2022/04/01 09:37:20;;;;;;;14.57;5.00;;;0.80;99.90;;;;;;5117842;27;20309;-70
2022/04/01 09:40:11;;;;;;;12.43;4.27;;;0.90;99.90;;;;;;5102084;27;20325;-70
2022/04/01 09:43:00;;;;;;;11.90;5.17;;;0.80;99.90;;;;;;5117391;27;20218;-70
2022/04/01 09:45:49;;;;;;;8.53;4.60;;;0.80;99.90;;;;;;5120185;27;20258;-71
2022/04/01 09:48:45;;;;;;;8.07;5.10;;;0.70;99.90;;;;;;5108303;27;20309;-71
2022/04/01 09:51:35;;;;;;;11.80;4.33;;;0.70;99.90;;;;;;5119167;27;20328;-71
2022/04/01 09:54:25;;;;;;;9.53;4.40;;;0.80;99.90;;;;;;5114387;27;20220;-70
2022/04/01 09:57:16;;;;;;;12.90;4.57;;;0.70;99.90;;;;;;5101489;27;20255;-69
2022/04/01 10:00:09;;;;;;;9.87;4.80;;;0.70;99.90;;;;;;5108587;27;20220;-69
2022/04/01 10:03:01;;;;;;;8.33;3.97;;;0.80;99.90;;;;;;5113326;27;20225;-69
2022/04/01 10:05:51;;;;;;;9.90;3.97;;;0.70;99.90;;;;;;5109462;27;20230;-72
2022/04/01 10:08:42;;;;;;;10.10;4.70;;;0.70;99.90;;;;;;5115359;27;20222;-70
2022/04/01 10:11:32;;;;;;;9.77;4.53;;;0.70;99.90;;;;;;5101359;27;20225;-71
2022/04/01 10:14:24;;;;;;;6.07;3.13;;;0.60;99.90;;;;;;5111890;27;20237;-71
2022/04/01 10:17:16;;;;;;;14.47;5.37;;;0.70;99.90;;;;;;5108404;27;20896;-69
2022/04/01 10:20:17;;;;;;;10.00;4.17;;;0.70;99.90;;;;;;5103326;27;20242;-70
2022/04/01 10:23:08;;;;;;;18.50;5.80;;;0.70;99.90;;;;;;5102237;27;20253;-71
2022/04/01 10:26:03;;;;;;;12.83;5.47;;;0.80;99.90;;;;;;5116485;27;20241;-71
2022/04/01 10:28:52;;;;;;;10.90;5.47;;;0.90;99.90;;;;;;5105192;27;20730;-71
2022/04/01 10:31:47;;;;;;;13.97;6.20;;;0.80;99.90;;;;;;5117478;27;20216;-69
2022/04/01 10:34:46;;;;;;;13.20;6.97;;;0.80;99.90;;;;;;5099253;27;20240;-69
2022/04/01 10:37:36;;;;;;;13.50;7.30;;;0.80;99.90;;;;;;5115722;27;20237;-69
2022/04/01 10:40:32;;;;;;;17.77;7.37;;;0.90;99.90;;;;;;5117784;27;20223;-69
2022/04/01 10:43:27;;;;;;;15.33;7.13;;;0.90;99.90;;;;;;5115724;27;20221;-69
2022/04/01 10:46:19;;;;;;;16.87;6.73;;;0.90;99.90;;;;;;5098542;28;20622;-69
2022/04/01 10:52:22;;;;;;;15.57;6.60;;;0.80;99.90;;;;;;5111046;28;20290;-69
2022/04/01 10:55:18;;;;;;;12.97;7.37;;;0.80;99.90;;;;;;5117935;28;20225;-69
2022/04/01 10:58:10;;;;;;;12.47;5.87;;;0.80;99.90;;;;;;5112127;27;20225;-69
2022/04/01 11:01:00;;;;;;;14.93;5.23;;;0.80;99.90;;;;;;5115954;28;20226;-69
2022/04/01 11:03:52;;;;;;;16.53;6.50;;;0.80;99.90;;;;;;5115135;27;21179;-70
2022/04/01 11:06:51;;;;;;;10.03;5.43;;;0.80;99.90;;;;;;5095644;28;20225;-70
2022/04/01 11:09:46;;;;;;;13.33;7.27;;;0.80;99.90;;;;;;5096537;27;20345;-71
2022/04/01 11:12:38;;;;;;;13.27;7.00;;;0.80;99.90;;;;;;5112404;28;20583;-71
2022/04/01 11:15:29;;;;;;;14.07;7.30;;;0.80;99.90;;;;;;5109784;28;20221;-71
2022/04/01 11:18:22;;;;;;;13.17;6.07;;;0.80;99.90;;;;;;5097101;28;20228;-71
2022/04/01 11:21:29;;;;;;;13.40;7.47;;;0.80;99.90;;;;;;5110989;27;20326;-71
2022/04/01 11:24:33;;;;;;;16.90;7.63;;;0.80;99.90;;;;;;5095999;28;20217;-71
2022/04/01 11:27:26;;;;;;;18.37;8.13;;;0.80;99.90;;;;;;5099125;27;20418;-70
2022/04/01 11:30:16;;;;;;;13.90;6.33;;;0.70;99.90;;;;;;5112430;27;20250;-70
2022/04/01 11:33:09;;;;;;;15.30;7.00;;;0.80;99.90;;;;;;5112200;27;20221;-71
2022/04/01 11:36:00;;;;;;;11.93;7.30;;;0.70;99.90;;;;;;5098831;28;20219;-71
2022/04/01 11:38:49;;;;;;;13.90;7.30;;;0.80;99.90;;;;;;5109180;27;20229;-72
2022/04/01 11:41:54;;;;;;;18.23;7.50;;;0.80;99.90;;;;;;5113170;27;20221;-72
2022/04/01 11:44:58;;;;;;;14.33;7.30;;;0.80;99.90;;;;;;5115108;27;20736;-72
2022/04/01 11:47:54;;;;;;;20.37;8.73;;;0.80;99.90;;;;;;5100335;27;21190;-74
2022/04/01 11:50:44;;;;;;;17.87;7.80;;;0.80;99.90;;;;;;5099426;28;20783;-72
2022/04/01 11:53:36;;;;;;;16.80;7.80;;;0.80;99.90;;;;;;5112980;27;20222;-71
2022/04/01 11:56:27;;;;;;;11.53;6.57;;;0.90;99.90;;;;;;5117811;27;20219;-71
2022/04/01 11:59:16;;;;;;;13.00;6.17;;;0.90;99.90;;;;;;5119630;27;20226;-71
2022/04/01 12:02:10;;;;;;;17.50;8.43;;;0.80;99.90;;;;;;5105920;27;20233;-72
2022/04/01 12:04:59;;;;;;;10.43;6.97;;;0.80;99.90;;;;;;5121805;27;20701;-72
2022/04/01 12:11:04;;;;;;;18.30;8.50;;;0.80;99.90;;;;;;5115051;27;20353;-71
2022/04/01 12:13:54;;;;;;;16.70;8.33;;;0.70;99.90;;;;;;5099039;27;20229;-71
2022/04/01 12:16:45;;;;;;;16.97;8.40;;;0.80;99.90;;;;;;5118724;27;20724;-71
2022/04/01 12:19:34;;;;;;;17.63;9.10;;;0.80;99.90;;;;;;5109268;27;20986;-71
2022/04/01 12:22:23;;;;;;;17.77;7.80;;;0.80;99.90;;;;;;5116386;27;20588;-71
2022/04/01 12:25:12;;;;;;;18.27;6.30;;;0.70;99.90;;;;;;5118677;27;20647;-70
2022/04/01 12:28:05;;;;;;;14.53;6.63;;;0.70;99.90;;;;;;5119566;27;20294;-70
2022/04/01 12:30:55;;;;;;;12.63;6.80;;;0.80;99.90;;;;;;5118341;27;20256;-71
2022/04/01 12:33:47;;;;;;;17.43;7.70;;;0.80;99.90;;;;;;5105216;27;20227;-70
2022/04/01 12:36:40;;;;;;;13.07;7.70;;;0.80;99.90;;;;;;5119113;27;20210;-71
2022/04/01 12:39:34;;;;;;;14.37;6.73;;;0.80;99.90;;;;;;5123894;27;20445;-71
2022/04/01 12:42:24;;;;;;;16.63;9.33;;;0.80;99.90;;;;;;5109902;27;20221;-70
2022/04/01 12:45:19;;;;;;;11.03;6.93;;;0.80;99.90;;;;;;5119368;27;20215;-69
2022/04/01 12:48:21;;;;;;;13.80;6.63;;;0.80;99.90;;;;;;5106133;27;20221;-69
2022/04/01 12:51:10;;;;;;;15.47;8.00;;;0.80;99.90;;;;;;5119201;27;20675;-68
2022/04/01 12:54:01;;;;;;;19.07;6.93;;;0.80;99.90;;;;;;5117716;27;20568;-70
2022/04/01 12:56:51;;;;;;;19.97;9.27;;;0.80;99.90;;;;;;5120097;27;20830;-70
2022/04/01 12:59:41;;;;;;;18.47;8.77;;;0.80;99.90;;;;;;5121330;27;20288;-70
2022/04/01 13:02:33;;;;;;;14.27;7.77;;;0.80;99.90;;;;;;5116723;27;20214;-70
2022/04/01 13:05:22;;;;;;;15.37;8.80;;;0.80;99.90;;;;;;5112283;27;20240;-69
2022/04/01 13:08:12;;;;;;;15.80;8.60;;;0.90;99.90;;;;;;5098749;27;20243;-69
2022/04/01 13:11:11;;;;;;;25.10;8.93;;;0.90;99.90;;;;;;5097352;27;20229;-70
2022/04/01 13:14:03;;;;;;;17.40;9.13;;;0.80;99.90;;;;;;5098308;27;20226;-69
2022/04/01 13:16:53;;;;;;;18.17;8.37;;;0.90;99.90;;;;;;5095508;27;20340;-68
2022/04/01 13:19:45;;;;;;;19.30;8.23;;;0.90;99.90;;;;;;5098315;27;20224;-69
2022/04/01 13:22:34;;;;;;;19.27;8.53;;;0.90;99.90;;;;;;5097870;27;20256;-69
2022/04/01 13:25:25;;;;;;;26.13;9.27;;;0.90;99.90;;;;;;5092684;27;20399;-69
2022/04/01 13:28:15;;;;;;;19.60;6.30;;;1.00;99.90;;;;;;5099622;27;20223;-70
2022/04/01 13:31:06;;;;;;;14.90;7.67;;;0.90;99.90;;;;;;5094083;28;20238;-69
2022/04/01 13:33:58;;;;;;;17.23;8.37;;;0.90;99.90;;;;;;5097349;27;20233;-71
2022/04/01 13:36:52;;;;;;;19.77;9.23;;;0.90;99.90;;;;;;5083173;28;20254;-69
2022/04/01 13:39:40;;;;;;;21.80;8.83;;;1.00;99.90;;;;;;5098425;27;20611;-70
2022/04/01 13:42:29;;;;;;;27.57;8.83;;;0.90;99.90;;;;;;5083135;28;20901;-69
2022/04/01 13:45:18;;;;;;;19.70;8.67;;;1.00;99.90;;;;;;5093627;27;20363;-70
2022/04/01 13:48:09;;;;;;;23.97;9.13;;;1.00;99.90;;;;;;5085634;27;20210;-70
2022/04/01 13:50:58;;;;;;;19.43;8.87;;;1.00;99.90;;;;;;5079245;28;20225;-70
2022/04/01 13:53:48;;;;;;;13.20;7.23;;;1.00;99.90;;;;;;5082977;27;20268;-69
2022/04/01 13:56:38;;;;;;;16.70;7.33;;;0.90;99.90;;;;;;5098458;27;20367;-69
2022/04/01 13:59:28;;;;;;;21.30;7.97;;;1.00;99.90;;;;;;5095595;27;20664;-69
2022/04/01 14:02:17;;;;;;;15.90;8.20;;;1.00;99.90;;;;;;5081149;27;20746;-66
2022/04/01 14:05:06;;;;;;;15.13;7.67;;;0.90;99.90;;;;;;5097719;27;20306;-70
2022/04/01 14:07:56;;;;;;;16.97;7.13;;;0.90;99.90;;;;;;5096393;27;20217;-69
2022/04/01 14:10:46;;;;;;;19.07;8.03;;;0.90;99.90;;;;;;5097612;27;20235;-69
2022/04/01 14:13:35;;;;;;;20.53;7.87;;;0.90;99.90;;;;;;5076200;28;20250;-69
2022/04/01 14:16:40;;;;;;;16.40;8.57;;;0.90;99.90;;;;;;5087823;27;20223;-69
2022/04/01 14:19:33;;;;;;;15.57;8.67;;;0.80;99.90;;;;;;5090909;27;20375;-68
2022/04/01 14:22:25;;;;;;;16.07;8.87;;;0.90;99.90;;;;;;5101105;27;20285;-69
2022/04/01 14:25:14;;;;;;;22.10;9.07;;;0.90;99.90;;;;;;5091917;28;20223;-69
2022/04/01 14:28:04;;;;;;;20.03;7.90;;;0.90;99.90;;;;;;5076150;28;20735;-69
2022/04/01 14:30:53;;;;;;;18.10;8.27;;;0.80;99.90;;;;;;5093508;28;20226;-67
2022/04/01 14:33:42;;;;;;;8.60;5.37;;;0.90;99.90;;;;;;5092907;28;20605;-70
2022/04/01 14:36:30;;;;;;;20.47;8.83;;;0.80;99.90;;;;;;5079283;28;20219;-68
2022/04/01 14:39:19;;;;;;;16.10;8.20;;;0.90;99.90;;;;;;5091753;28;20305;-68
2022/04/01 14:42:08;;;;;;;17.47;8.93;;;0.90;99.90;;;;;;5074608;28;20237;-69
2022/04/01 18:07:40;;;;;;;35.60;18.53;;;0.90;99.90;;;;;;5055658;27;20604;-66
2022/04/01 18:10:29;;;;;;;32.00;17.77;;;0.80;99.90;;;;;;5065936;28;20225;-66
2022/04/01 18:13:19;;;;;;;40.13;20.20;;;0.80;99.90;;;;;;5070155;27;20321;-66
2022/04/01 18:16:08;;;;;;;42.00;22.33;;;0.80;99.90;;;;;;5067570;27;21061;-68
2022/04/01 18:18:57;;;;;;;31.50;17.07;;;0.80;99.90;;;;;;5068137;28;20218;-69
2022/04/01 18:21:46;;;;;;;41.47;20.27;;;0.80;99.90;;;;;;5062519;27;20871;-68
2022/04/01 18:27:51;;;;;;;36.80;18.73;;;0.70;99.90;;;;;;5072824;28;20294;-70
2022/04/01 18:30:42;;;;;;;37.33;17.37;;;0.80;99.90;;;;;;5069692;28;20232;-67
2022/04/01 18:33:38;;;;;;;42.20;21.27;;;0.70;99.90;;;;;;5071044;27;20227;-67
2022/04/01 18:36:29;;;;;;;38.60;19.73;;;0.80;99.90;;;;;;5070278;28;20222;-66
2022/04/01 18:39:19;;;;;;;42.50;20.20;;;0.70;99.90;;;;;;5068765;27;20233;-66
2022/04/01 18:42:24;;;;;;;34.47;17.80;;;0.80;99.90;;;;;;5074414;28;20293;-68
2022/04/01 18:45:12;;;;;;;38.30;18.97;;;0.80;99.90;;;;;;5084674;28;20225;-68
2022/04/01 18:48:03;;;;;;;34.93;17.83;;;0.70;99.90;;;;;;5087185;28;20230;-67